Time;durP1;ratioP1;P1;durP2;ratioP2;P2;SDS_P1;SDS_P2;PMS_P1;PMS_P2;Temp;Humidity;BMP_temperature;BMP_pressure;BME280_temperature;BME280_humidity;BME280_pressure;Samples;Min_cycle;Max_cycle;Signal;HPM_P1;HPM_P2
2022/07/11 00:00:18;;;;;;;7.80;2.90;;;19.70;99.90;;;;;;2087322;28;20508;-72
2022/07/11 00:01:19;;;;;;;7.03;2.72;;;19.70;99.90;;;;;;2082553;28;20385;-72
2022/07/11 00:02:20;;;;;;;4.15;2.40;;;19.70;99.90;;;;;;2084577;28;20021;-72
2022/07/11 00:03:20;;;;;;;5.53;2.58;;;19.70;99.90;;;;;;2086028;28;20658;-72
2022/07/11 00:04:21;;;;;;;4.88;2.75;;;19.70;99.90;;;;;;2087739;28;20133;-71
2022/07/11 00:05:22;;;;;;;8.05;2.97;;;19.70;99.90;;;;;;2082780;28;20044;-72
2022/07/11 00:06:22;;;;;;;5.40;2.80;;;19.70;99.90;;;;;;2083537;28;20025;-71
2022/07/11 00:07:23;;;;;;;5.47;2.45;;;19.70;99.90;;;;;;2085875;28;20031;-72
2022/07/11 00:08:24;;;;;;;5.45;2.70;;;19.70;99.90;;;;;;2085888;28;20029;-72
2022/07/11 00:09:24;;;;;;;7.65;2.67;;;19.80;99.90;;;;;;2085158;28;20049;-72
2022/07/11 00:10:25;;;;;;;7.22;2.55;;;19.80;99.90;;;;;;2084672;28;20055;-72
2022/07/11 00:11:26;;;;;;;5.88;2.80;;;19.80;99.90;;;;;;2087676;28;20037;-72
2022/07/11 00:12:26;;;;;;;5.82;2.33;;;19.80;99.90;;;;;;2087903;28;20872;-72
2022/07/11 00:13:27;;;;;;;3.97;2.58;;;19.80;99.90;;;;;;2084708;28;20467;-72
2022/07/11 00:14:28;;;;;;;5.50;2.35;;;19.80;99.90;;;;;;2084951;28;20024;-72
2022/07/11 00:15:29;;;;;;;6.28;2.58;;;19.80;99.90;;;;;;2080811;28;20041;-72
2022/07/11 00:16:29;;;;;;;4.47;2.50;;;19.80;99.90;;;;;;2083855;28;20485;-72
2022/07/11 00:17:30;;;;;;;4.38;2.50;;;19.80;99.90;;;;;;2086550;28;20106;-72
2022/07/11 00:18:30;;;;;;;7.25;2.53;;;19.80;99.90;;;;;;2087854;28;20036;-72
2022/07/11 00:19:31;;;;;;;8.20;2.78;;;19.80;99.90;;;;;;2085471;28;20397;-72
2022/07/11 00:20:31;;;;;;;5.18;2.80;;;19.80;99.90;;;;;;2085865;28;20025;-72
2022/07/11 00:21:34;;;;;;;6.95;2.50;;;19.80;99.90;;;;;;2084176;28;20029;-72
2022/07/11 00:22:35;;;;;;;5.95;2.78;;;19.80;99.90;;;;;;2085592;28;20019;-72
2022/07/11 00:23:35;;;;;;;6.93;2.80;;;19.80;99.90;;;;;;2084798;28;20488;-72
2022/07/11 00:24:36;;;;;;;5.90;3.00;;;19.80;99.90;;;;;;2084283;28;20032;-72
2022/07/11 00:25:36;;;;;;;6.82;3.03;;;19.80;99.90;;;;;;2081621;28;20029;-72
2022/07/11 00:26:37;;;;;;;5.60;2.53;;;19.80;99.90;;;;;;2087701;28;20025;-72
2022/07/11 00:27:38;;;;;;;3.83;2.17;;;19.80;99.90;;;;;;2086189;28;20128;-72
2022/07/11 00:28:39;;;;;;;7.65;3.00;;;19.80;99.90;;;;;;2086597;28;20025;-72
2022/07/11 00:29:39;;;;;;;6.85;2.45;;;19.80;99.90;;;;;;2087100;28;20026;-72
2022/07/11 00:30:40;;;;;;;6.05;2.47;;;19.80;99.90;;;;;;2084785;28;20079;-72
2022/07/11 00:31:41;;;;;;;6.70;2.60;;;19.80;99.90;;;;;;2085453;28;20085;-72
2022/07/11 00:32:41;;;;;;;5.35;2.70;;;19.80;99.90;;;;;;2084373;28;20016;-72
2022/07/11 00:33:42;;;;;;;6.75;2.70;;;19.80;99.90;;;;;;2081688;28;20485;-72
2022/07/11 00:34:43;;;;;;;6.82;3.15;;;19.80;99.90;;;;;;2085970;28;20512;-72
2022/07/11 00:35:43;;;;;;;7.10;2.88;;;19.80;99.90;;;;;;2083395;28;20392;-72
2022/07/11 00:36:44;;;;;;;6.20;3.10;;;19.80;99.90;;;;;;2087355;28;20462;-72
2022/07/11 00:37:45;;;;;;;4.97;2.28;;;19.80;99.90;;;;;;2087479;28;20056;-72
2022/07/11 00:38:46;;;;;;;5.30;2.40;;;19.70;99.90;;;;;;2083773;28;20384;-72
2022/07/11 00:39:47;;;;;;;6.07;3.08;;;19.70;99.90;;;;;;2085009;28;20031;-72
2022/07/11 00:40:47;;;;;;;5.45;2.83;;;19.70;99.90;;;;;;2085911;28;20021;-72
2022/07/11 00:41:48;;;;;;;10.48;2.75;;;19.60;99.90;;;;;;2083940;28;20034;-72
2022/07/11 00:42:48;;;;;;;7.30;2.97;;;19.70;99.90;;;;;;2086108;28;20048;-72
2022/07/11 00:43:57;;;;;;;9.32;2.78;;;19.60;99.90;;;;;;2085032;28;20048;-72
2022/07/11 00:44:57;;;;;;;8.70;3.35;;;19.60;99.90;;;;;;2086901;28;20021;-72
2022/07/11 00:45:59;;;;;;;5.00;2.72;;;19.60;99.90;;;;;;2085600;28;20022;-72
2022/07/11 00:46:59;;;;;;;6.35;3.17;;;19.60;99.90;;;;;;2083234;28;20029;-72
2022/07/11 00:48:00;;;;;;;5.68;3.05;;;19.60;99.90;;;;;;2083914;28;20033;-72
2022/07/11 00:49:01;;;;;;;4.97;2.60;;;19.50;99.90;;;;;;2082778;28;20021;-72
2022/07/11 00:50:02;;;;;;;8.32;2.78;;;19.50;99.90;;;;;;2084560;28;20421;-72
2022/07/11 00:51:04;;;;;;;6.80;2.65;;;19.50;99.90;;;;;;2084028;28;20017;-72
2022/07/11 00:52:05;;;;;;;7.53;3.10;;;19.50;99.90;;;;;;2085297;28;20089;-72
2022/07/11 00:53:05;;;;;;;8.57;3.05;;;19.50;99.90;;;;;;2084868;28;20029;-72
2022/07/11 00:54:08;;;;;;;6.85;2.63;;;19.50;99.90;;;;;;2083757;28;20574;-72
2022/07/11 00:55:10;;;;;;;8.43;2.97;;;19.50;99.90;;;;;;2087617;28;20032;-72
2022/07/11 00:56:11;;;;;;;7.13;3.08;;;19.40;99.90;;;;;;2086817;28;20057;-72
2022/07/11 00:57:12;;;;;;;4.57;2.50;;;19.40;99.90;;;;;;2085121;28;20032;-72
2022/07/11 00:58:13;;;;;;;8.63;3.10;;;19.40;99.90;;;;;;2085562;28;20055;-72
2022/07/11 00:59:17;;;;;;;6.50;2.60;;;19.40;99.90;;;;;;2086081;28;20031;-72
2022/07/11 01:00:18;;;;;;;3.40;2.25;;;19.40;99.90;;;;;;2085612;28;20033;-72
2022/07/11 01:01:19;;;;;;;7.35;2.72;;;19.40;99.90;;;;;;2086383;28;20025;-72
2022/07/11 01:02:19;;;;;;;7.38;2.95;;;19.40;99.90;;;;;;2085029;28;20029;-72
2022/07/11 01:03:20;;;;;;;5.10;2.17;;;19.40;99.90;;;;;;2084349;28;20017;-72
2022/07/11 01:04:21;;;;;;;4.18;2.28;;;19.40;99.90;;;;;;2084754;28;20025;-72
2022/07/11 01:05:22;;;;;;;6.00;2.55;;;19.40;99.90;;;;;;2084698;28;20075;-72
2022/07/11 01:06:23;;;;;;;7.60;2.83;;;19.40;99.90;;;;;;2084042;28;20079;-72
2022/07/11 01:07:23;;;;;;;6.63;2.47;;;19.40;99.90;;;;;;2083967;28;20029;-72
2022/07/11 01:08:24;;;;;;;4.60;2.70;;;19.40;99.90;;;;;;2084496;28;20052;-72
2022/07/11 01:09:25;;;;;;;4.72;2.00;;;19.40;99.90;;;;;;2082238;28;20036;-72
2022/07/11 01:10:26;;;;;;;5.22;2.72;;;19.40;99.90;;;;;;2086814;28;20040;-72
2022/07/11 01:11:27;;;;;;;5.20;2.85;;;19.40;99.90;;;;;;2084712;28;20455;-72
2022/07/11 01:12:28;;;;;;;5.30;2.70;;;19.40;99.90;;;;;;2083693;28;20040;-72
2022/07/11 01:13:29;;;;;;;4.53;2.72;;;19.40;99.90;;;;;;2082733;28;20504;-72
2022/07/11 01:14:30;;;;;;;5.32;2.80;;;19.40;99.90;;;;;;2085038;28;20471;-72
2022/07/11 01:15:34;;;;;;;10.13;2.55;;;19.30;99.90;;;;;;2084145;28;20116;-72
2022/07/11 01:16:34;;;;;;;4.43;2.33;;;19.30;99.90;;;;;;2085655;28;20028;-72
2022/07/11 01:17:35;;;;;;;3.55;2.28;;;19.30;99.90;;;;;;2087375;28;20123;-72
2022/07/11 01:18:36;;;;;;;4.38;2.00;;;19.30;99.90;;;;;;2085197;28;20092;-72
2022/07/11 01:19:36;;;;;;;4.97;2.30;;;19.30;99.90;;;;;;2083866;28;20032;-72
2022/07/11 01:20:37;;;;;;;7.18;3.00;;;19.30;99.90;;;;;;2084498;28;20040;-72
2022/07/11 01:21:39;;;;;;;3.58;2.10;;;19.30;99.90;;;;;;2083070;28;20036;-72
2022/07/11 01:22:44;;;;;;;4.47;2.70;;;19.30;99.90;;;;;;2084899;28;20076;-72
2022/07/11 01:23:49;;;;;;;5.18;2.60;;;19.30;99.90;;;;;;2085197;28;20071;-72
2022/07/11 01:24:49;;;;;;;4.07;2.30;;;19.20;99.90;;;;;;2082826;28;20383;-72
2022/07/11 01:25:51;;;;;;;4.13;2.83;;;19.20;99.90;;;;;;2083594;28;20017;-72
2022/07/11 01:26:52;;;;;;;5.90;2.42;;;19.20;99.90;;;;;;2086615;28;20025;-72
2022/07/11 01:27:52;;;;;;;5.43;2.80;;;19.20;99.90;;;;;;2083347;28;20083;-72
2022/07/11 01:28:57;;;;;;;7.63;2.88;;;19.20;99.90;;;;;;2082818;28;20555;-72
2022/07/11 01:29:57;;;;;;;6.20;2.38;;;19.10;99.90;;;;;;2083675;28;20021;-72
2022/07/11 01:30:58;;;;;;;7.40;3.30;;;19.10;99.90;;;;;;2084550;28;20118;-72
2022/07/11 01:31:58;;;;;;;5.95;2.83;;;19.10;99.90;;;;;;2084131;28;20518;-72
2022/07/11 01:32:59;;;;;;;3.55;2.20;;;19.10;99.90;;;;;;2085539;28;20059;-72
2022/07/11 01:34:00;;;;;;;4.82;2.85;;;19.00;99.90;;;;;;2085219;28;20486;-72
2022/07/11 01:35:00;;;;;;;6.22;3.03;;;19.00;99.90;;;;;;2082741;28;20160;-72
2022/07/11 01:36:02;;;;;;;14.52;8.52;;;19.00;99.90;;;;;;2083246;28;20021;-72
2022/07/11 01:37:02;;;;;;;7.65;4.82;;;19.00;99.90;;;;;;2082512;28;20030;-72
2022/07/11 01:38:03;;;;;;;5.70;3.80;;;19.00;99.90;;;;;;2075077;28;20602;-72
2022/07/11 01:39:04;;;;;;;6.55;3.83;;;19.00;99.90;;;;;;2083739;28;20488;-72
2022/07/11 01:40:05;;;;;;;5.38;2.97;;;18.90;99.90;;;;;;2081258;28;20428;-72
2022/07/11 01:41:06;;;;;;;6.30;2.83;;;18.90;99.90;;;;;;2084688;28;20024;-72
2022/07/11 01:42:07;;;;;;;4.13;2.67;;;18.90;99.90;;;;;;2083456;28;20017;-72
2022/07/11 01:43:07;;;;;;;4.55;2.80;;;18.90;99.90;;;;;;2084149;28;20021;-72
2022/07/11 01:44:08;;;;;;;4.20;2.25;;;18.90;99.90;;;;;;2085822;28;20074;-72
2022/07/11 01:45:10;;;;;;;5.72;2.60;;;18.90;99.90;;;;;;2084116;28;20025;-72
2022/07/11 01:46:11;;;;;;;8.63;3.20;;;18.80;99.90;;;;;;2083866;28;20126;-72
2022/07/11 01:47:11;;;;;;;5.85;2.85;;;18.80;99.90;;;;;;2084667;28;20148;-72
2022/07/11 01:48:12;;;;;;;6.68;2.70;;;18.80;99.90;;;;;;2088478;28;20162;-72
2022/07/11 01:49:13;;;;;;;4.72;2.20;;;18.80;99.90;;;;;;2086470;28;20028;-72
2022/07/11 01:50:13;;;;;;;6.28;2.45;;;18.70;99.90;;;;;;2085459;28;20370;-72
2022/07/11 01:51:14;;;;;;;4.10;2.08;;;18.70;99.90;;;;;;2085556;28;20550;-72
2022/07/11 01:52:15;;;;;;;4.75;2.42;;;18.70;99.90;;;;;;2084552;28;20035;-72
2022/07/11 01:53:16;;;;;;;7.20;2.65;;;18.70;99.90;;;;;;2083201;28;20029;-72
2022/07/11 01:54:16;;;;;;;5.10;2.78;;;18.70;99.90;;;;;;2086891;28;20033;-72
2022/07/11 01:55:17;;;;;;;6.45;2.60;;;18.70;99.90;;;;;;2082624;28;20039;-72
2022/07/11 01:56:18;;;;;;;4.78;2.90;;;18.70;99.90;;;;;;2083677;28;20061;-72
2022/07/11 01:57:18;;;;;;;5.15;2.42;;;18.60;99.90;;;;;;2084921;28;20025;-72
2022/07/11 01:58:19;;;;;;;6.85;2.67;;;18.60;99.90;;;;;;2084038;28;20018;-72
2022/07/11 01:59:19;;;;;;;5.97;2.63;;;18.60;99.90;;;;;;2082779;28;20071;-72
2022/07/11 02:00:20;;;;;;;3.67;2.40;;;18.60;99.90;;;;;;2085478;28;20029;-72
2022/07/11 02:01:21;;;;;;;4.53;2.47;;;18.60;99.90;;;;;;2086280;28;20059;-72
2022/07/11 02:02:21;;;;;;;5.43;2.83;;;18.60;99.90;;;;;;2089926;28;20035;-72
2022/07/11 02:03:22;;;;;;;5.70;2.65;;;18.60;99.90;;;;;;2086243;28;20366;-72
2022/07/11 02:04:22;;;;;;;6.22;2.88;;;18.60;99.90;;;;;;2087675;28;20072;-72
2022/07/11 02:05:23;;;;;;;6.95;3.08;;;18.50;99.90;;;;;;2085905;28;20047;-72
2022/07/11 02:06:24;;;;;;;3.80;2.60;;;18.50;99.90;;;;;;2083347;28;20067;-72
2022/07/11 02:08:43;;;;;;;3.58;2.15;;;18.50;99.90;;;;;;2085241;28;20037;-72
2022/07/11 02:09:44;;;;;;;8.77;3.42;;;18.50;99.90;;;;;;2082703;28;20033;-72
2022/07/11 02:10:49;;;;;;;7.28;2.90;;;18.50;99.90;;;;;;2086720;28;20100;-72
2022/07/11 02:11:50;;;;;;;7.72;2.78;;;18.50;99.90;;;;;;2084567;28;20159;-72
2022/07/11 02:12:50;;;;;;;5.53;2.58;;;18.50;99.90;;;;;;2086696;28;20021;-72
2022/07/11 02:13:51;;;;;;;5.25;2.95;;;18.50;99.90;;;;;;2086068;28;20079;-72
2022/07/11 02:14:51;;;;;;;7.18;2.80;;;18.50;99.90;;;;;;2086160;28;20025;-72
2022/07/11 02:15:53;;;;;;;7.18;3.25;;;18.50;99.90;;;;;;2085728;28;20040;-72
2022/07/11 02:16:53;;;;;;;8.30;2.95;;;18.50;99.90;;;;;;2085528;28;20103;-72
2022/07/11 02:17:54;;;;;;;8.00;3.58;;;18.50;99.90;;;;;;2087745;28;20025;-72
2022/07/11 02:18:55;;;;;;;5.82;2.80;;;18.40;99.90;;;;;;2089715;28;20148;-72
2022/07/11 02:19:55;;;;;;;9.43;3.10;;;18.50;99.90;;;;;;2088983;28;20021;-72
2022/07/11 02:20:56;;;;;;;4.82;2.60;;;18.40;99.90;;;;;;2088340;28;20040;-72
2022/07/11 02:21:57;;;;;;;3.88;2.45;;;18.40;99.90;;;;;;2079888;28;20531;-72
2022/07/11 02:22:58;;;;;;;7.45;3.20;;;18.50;99.90;;;;;;2083744;28;20431;-72
2022/07/11 02:23:59;;;;;;;8.10;2.97;;;18.50;99.90;;;;;;2083503;28;20017;-72
2022/07/11 02:25:00;;;;;;;6.38;2.85;;;18.50;99.90;;;;;;2085233;28;20029;-72
2022/07/11 02:26:01;;;;;;;7.32;2.88;;;18.50;99.90;;;;;;2084323;28;20013;-72
2022/07/11 02:27:01;;;;;;;7.40;3.50;;;18.50;99.90;;;;;;2085433;28;20021;-72
2022/07/11 02:28:02;;;;;;;4.63;2.83;;;18.50;99.90;;;;;;2085632;28;20132;-72
2022/07/11 02:29:02;;;;;;;6.78;2.97;;;18.50;99.90;;;;;;2085836;28;20029;-72
2022/07/11 02:30:03;;;;;;;5.22;3.10;;;18.50;99.90;;;;;;2087299;28;20443;-72
2022/07/11 02:31:04;;;;;;;7.25;3.10;;;18.40;99.90;;;;;;2085757;28;20035;-72
2022/07/11 02:32:05;;;;;;;7.10;3.20;;;18.50;99.90;;;;;;2086862;28;20507;-72
2022/07/11 02:33:15;;;;;;;6.57;3.03;;;18.50;99.90;;;;;;2086314;28;20033;-72
2022/07/11 02:34:16;;;;;;;6.43;2.45;;;18.50;99.90;;;;;;2085068;28;20055;-72
2022/07/11 02:35:17;;;;;;;10.45;3.00;;;18.50;99.90;;;;;;2086531;28;20063;-72
2022/07/11 02:36:18;;;;;;;11.48;3.33;;;18.50;99.90;;;;;;2086699;28;20021;-72
2022/07/11 02:37:19;;;;;;;5.68;3.20;;;18.50;99.90;;;;;;2086499;28;20025;-72
2022/07/11 02:38:20;;;;;;;7.85;2.95;;;18.50;99.90;;;;;;2087548;28;20029;-72
2022/07/11 02:39:20;;;;;;;7.43;3.00;;;18.50;99.90;;;;;;2086380;28;20497;-72
2022/07/11 02:40:21;;;;;;;10.70;3.50;;;18.60;99.90;;;;;;2084192;28;20397;-72
2022/07/11 02:41:21;;;;;;;6.75;3.33;;;18.60;99.90;;;;;;2088146;28;20504;-72
2022/07/11 02:42:22;;;;;;;7.43;3.10;;;18.60;99.90;;;;;;2086019;28;20055;-72
2022/07/11 02:43:23;;;;;;;7.80;3.10;;;18.60;99.90;;;;;;2088634;28;20036;-72
2022/07/11 02:44:23;;;;;;;7.50;3.55;;;18.60;99.90;;;;;;2085350;28;20028;-72
2022/07/11 02:45:24;;;;;;;8.48;3.40;;;18.60;99.90;;;;;;2087745;28;20100;-72
2022/07/11 02:46:25;;;;;;;9.50;3.38;;;18.60;99.90;;;;;;2086983;28;20711;-72
2022/07/11 02:47:25;;;;;;;8.70;3.13;;;18.60;99.90;;;;;;2086274;28;20466;-72
2022/07/11 02:48:26;;;;;;;8.45;3.30;;;18.60;99.90;;;;;;2086229;28;20151;-72
2022/07/11 02:49:26;;;;;;;9.13;3.78;;;18.60;99.90;;;;;;2086322;28;20037;-72
2022/07/11 02:50:27;;;;;;;7.65;3.10;;;18.60;99.90;;;;;;2084805;28;20018;-72
2022/07/11 02:51:28;;;;;;;9.52;3.20;;;18.60;99.90;;;;;;2085208;28;20036;-72
2022/07/11 02:52:28;;;;;;;7.18;3.70;;;18.60;99.90;;;;;;2087199;28;20021;-72
2022/07/11 02:53:29;;;;;;;10.50;3.42;;;18.60;99.90;;;;;;2086820;28;20032;-72
2022/07/11 02:54:30;;;;;;;6.45;3.08;;;18.60;99.90;;;;;;2084323;28;20072;-72
2022/07/11 02:55:30;;;;;;;7.30;3.08;;;18.60;99.90;;;;;;2083510;28;20032;-72
2022/07/11 02:56:32;;;;;;;9.25;3.20;;;18.60;99.90;;;;;;2086092;28;20029;-72
2022/07/11 02:57:34;;;;;;;6.72;3.50;;;18.60;99.90;;;;;;2082668;28;20034;-72
2022/07/11 02:58:35;;;;;;;6.68;3.35;;;18.70;99.90;;;;;;2085744;28;20428;-72
2022/07/11 02:59:35;;;;;;;8.25;3.38;;;18.70;99.90;;;;;;2084846;28;20033;-72
2022/07/11 03:00:36;;;;;;;15.95;3.78;;;18.70;99.90;;;;;;2084754;28;20500;-72
2022/07/11 03:01:36;;;;;;;6.00;3.22;;;18.70;99.90;;;;;;2085001;28;20438;-72
2022/07/11 03:02:37;;;;;;;7.03;3.70;;;18.70;99.90;;;;;;2086720;28;20049;-72
2022/07/11 03:03:37;;;;;;;6.55;3.28;;;18.70;99.90;;;;;;2088092;28;20027;-72
2022/07/11 03:04:39;;;;;;;7.85;3.45;;;18.70;99.90;;;;;;2085003;28;20052;-72
2022/07/11 03:05:39;;;;;;;8.68;3.45;;;18.70;99.90;;;;;;2084007;28;20094;-72
2022/07/11 03:06:40;;;;;;;4.53;3.25;;;18.70;99.90;;;;;;2086273;28;20017;-72
2022/07/11 03:07:41;;;;;;;5.97;3.20;;;18.70;99.90;;;;;;2083040;28;20132;-72
2022/07/11 03:08:41;;;;;;;7.82;3.63;;;18.70;99.90;;;;;;2084956;28;20044;-72
2022/07/11 03:09:43;;;;;;;11.55;3.47;;;18.70;99.90;;;;;;2083982;28;20036;-72
2022/07/11 03:10:43;;;;;;;8.95;4.00;;;18.70;99.90;;;;;;2084523;28;20021;-72
2022/07/11 03:11:44;;;;;;;9.30;3.60;;;18.70;99.90;;;;;;2085413;28;20107;-72
2022/07/11 03:12:45;;;;;;;6.88;3.45;;;18.60;99.90;;;;;;2087451;28;20025;-72
2022/07/11 03:13:45;;;;;;;9.63;4.03;;;18.70;99.90;;;;;;2085675;28;20078;-72
2022/07/11 03:14:46;;;;;;;9.43;3.88;;;18.60;99.90;;;;;;2083040;28;20056;-72
2022/07/11 03:15:47;;;;;;;9.80;3.55;;;18.60;99.90;;;;;;2084357;28;20058;-72
2022/07/11 03:16:47;;;;;;;9.65;4.00;;;18.60;99.90;;;;;;2088198;28;20489;-72
2022/07/11 03:17:48;;;;;;;11.75;4.22;;;18.60;99.90;;;;;;2084937;28;20049;-72
2022/07/11 03:18:49;;;;;;;11.20;3.47;;;18.60;99.90;;;;;;2085834;28;20029;-72
2022/07/11 03:19:50;;;;;;;8.93;3.63;;;18.60;99.90;;;;;;2084187;28;20086;-72
2022/07/11 03:20:50;;;;;;;6.30;3.67;;;18.60;99.90;;;;;;2084030;28;20017;-72
2022/07/11 03:21:52;;;;;;;6.38;3.97;;;18.60;99.90;;;;;;2085076;28;20049;-72
2022/07/11 03:22:52;;;;;;;7.97;3.38;;;18.60;99.90;;;;;;2085365;28;20012;-72
2022/07/11 03:23:53;;;;;;;7.95;3.72;;;18.70;99.90;;;;;;2087798;28;20057;-72
2022/07/11 03:24:53;;;;;;;7.60;3.63;;;18.70;99.90;;;;;;2084271;28;20515;-72
2022/07/11 03:25:54;;;;;;;11.00;3.80;;;18.60;99.90;;;;;;2084789;28;20104;-72
2022/07/11 03:26:55;;;;;;;10.32;3.95;;;18.60;99.90;;;;;;2080898;28;20040;-72
2022/07/11 03:27:55;;;;;;;7.45;4.03;;;18.70;99.90;;;;;;2083884;28;20083;-72
2022/07/11 03:28:56;;;;;;;9.32;3.70;;;18.60;99.90;;;;;;2083914;28;20033;-72
2022/07/11 03:29:57;;;;;;;8.88;3.65;;;18.60;99.90;;;;;;2086483;28;20033;-72
2022/07/11 03:30:57;;;;;;;5.30;3.33;;;18.60;99.90;;;;;;2087259;28;20025;-72
2022/07/11 03:31:58;;;;;;;7.45;3.88;;;18.60;99.90;;;;;;2087326;28;20112;-72
2022/07/11 03:32:59;;;;;;;7.40;3.78;;;18.70;99.90;;;;;;2083138;28;20037;-72
2022/07/11 03:33:59;;;;;;;8.15;3.63;;;18.70;99.90;;;;;;2085631;28;20108;-72
2022/07/11 03:36:19;;;;;;;6.75;3.30;;;18.70;99.90;;;;;;2086595;28;20450;-72
2022/07/11 03:37:20;;;;;;;6.57;2.90;;;18.70;99.90;;;;;;2085049;28;20029;-72
2022/07/11 03:38:21;;;;;;;8.05;4.35;;;18.70;99.90;;;;;;2087902;28;20510;-72
2022/07/11 03:39:22;;;;;;;6.22;3.80;;;18.70;99.90;;;;;;2085494;28;20036;-72
2022/07/11 03:40:22;;;;;;;9.90;3.83;;;18.70;99.90;;;;;;2086355;28;20049;-72
2022/07/11 03:41:23;;;;;;;8.25;3.47;;;18.70;99.90;;;;;;2084482;28;20026;-72
2022/07/11 03:42:24;;;;;;;7.03;3.72;;;18.70;99.90;;;;;;2085485;28;20025;-72
2022/07/11 03:43:25;;;;;;;9.82;3.47;;;18.70;99.90;;;;;;2085801;28;20021;-72
2022/07/11 03:44:25;;;;;;;10.23;3.63;;;18.70;99.90;;;;;;2079801;28;20057;-72
2022/07/11 03:45:27;;;;;;;7.25;3.42;;;18.70;99.90;;;;;;2086433;28;20397;-72
2022/07/11 03:46:28;;;;;;;4.90;3.00;;;18.70;99.90;;;;;;2084278;28;20049;-72
2022/07/11 03:47:28;;;;;;;10.18;3.47;;;18.70;99.90;;;;;;2084546;28;20021;-72
2022/07/11 03:48:29;;;;;;;6.20;3.10;;;18.70;99.90;;;;;;2085653;28;20026;-72
2022/07/11 03:49:29;;;;;;;8.63;3.05;;;18.70;99.90;;;;;;2084566;28;20179;-72
2022/07/11 03:50:30;;;;;;;9.50;3.15;;;18.60;99.90;;;;;;2083434;28;20036;-72
2022/07/11 03:51:31;;;;;;;5.88;3.17;;;18.70;99.90;;;;;;2082153;28;20029;-72
2022/07/11 03:52:32;;;;;;;9.98;3.80;;;18.70;99.90;;;;;;2086208;28;20112;-72
2022/07/11 03:53:33;;;;;;;8.20;3.78;;;18.70;99.90;;;;;;2086263;28;20021;-72
2022/07/11 03:54:34;;;;;;;7.03;3.28;;;18.70;99.90;;;;;;2086685;28;20028;-72
2022/07/11 03:55:34;;;;;;;3.90;2.83;;;18.70;99.90;;;;;;2086185;28;20029;-72
2022/07/11 03:56:35;;;;;;;6.38;3.00;;;18.70;99.90;;;;;;2087597;28;20024;-72
2022/07/11 03:57:36;;;;;;;11.25;3.10;;;18.70;99.90;;;;;;2085866;28;20024;-72
2022/07/11 03:58:37;;;;;;;8.02;3.38;;;18.70;99.90;;;;;;2083409;28;20022;-72
2022/07/11 03:59:37;;;;;;;7.82;3.42;;;18.70;99.90;;;;;;2087421;28;20029;-72
2022/07/11 04:00:38;;;;;;;6.35;2.45;;;18.70;99.90;;;;;;2078018;28;20516;-73
2022/07/11 04:01:38;;;;;;;12.90;3.38;;;18.70;99.90;;;;;;2078931;28;20026;-72
2022/07/11 04:02:39;;;;;;;6.28;2.72;;;18.70;99.90;;;;;;2087906;28;20075;-72
2022/07/11 04:03:40;;;;;;;7.53;3.20;;;18.70;99.90;;;;;;2091588;28;20028;-72
2022/07/11 04:04:40;;;;;;;5.50;2.80;;;18.70;99.90;;;;;;2093592;28;20020;-72
2022/07/11 04:05:41;;;;;;;5.30;2.83;;;18.60;99.90;;;;;;2082822;28;20017;-72
2022/07/11 04:06:43;;;;;;;6.63;3.08;;;18.70;99.90;;;;;;2084699;28;20173;-72
2022/07/11 04:07:44;;;;;;;6.40;3.20;;;18.70;99.90;;;;;;2084236;28;20051;-72
2022/07/11 04:08:45;;;;;;;4.68;2.55;;;18.70;99.90;;;;;;2083244;28;20035;-72
2022/07/11 04:09:45;;;;;;;3.63;2.83;;;18.70;99.90;;;;;;2087431;28;20021;-72
2022/07/11 04:10:46;;;;;;;6.97;2.65;;;18.70;99.90;;;;;;2087814;28;20029;-72
2022/07/11 04:11:47;;;;;;;4.68;2.70;;;18.70;99.90;;;;;;2086529;28;20028;-72
2022/07/11 04:12:47;;;;;;;6.18;2.60;;;18.70;99.90;;;;;;2085457;28;20108;-72
2022/07/11 04:13:48;;;;;;;8.48;3.08;;;18.70;99.90;;;;;;2087866;28;20021;-72
2022/07/11 04:14:49;;;;;;;8.48;2.70;;;18.70;99.90;;;;;;2082941;28;20036;-72
2022/07/11 04:15:49;;;;;;;4.82;2.42;;;18.70;99.90;;;;;;2080158;28;20013;-72
2022/07/11 04:16:51;;;;;;;5.45;2.60;;;18.70;99.90;;;;;;2083964;28;20029;-72
2022/07/11 04:17:52;;;;;;;5.03;2.50;;;18.70;99.90;;;;;;2086308;28;20496;-72
2022/07/11 04:18:53;;;;;;;4.50;2.50;;;18.70;99.90;;;;;;2088118;28;20373;-72
2022/07/11 04:19:53;;;;;;;6.75;2.40;;;18.70;99.90;;;;;;2085264;28;20534;-72
2022/07/11 04:20:54;;;;;;;4.43;2.33;;;18.70;99.90;;;;;;2083140;28;20021;-72
2022/07/11 04:21:56;;;;;;;6.00;2.33;;;18.70;99.90;;;;;;2086305;28;20067;-72
2022/07/11 04:22:56;;;;;;;5.60;2.65;;;18.70;99.90;;;;;;2085147;28;20222;-72
2022/07/11 04:23:57;;;;;;;4.40;2.22;;;18.70;99.90;;;;;;2085550;28;20025;-72
2022/07/11 04:24:58;;;;;;;5.85;2.38;;;18.70;99.90;;;;;;2085386;28;20668;-72
2022/07/11 04:25:58;;;;;;;6.60;2.63;;;18.60;99.90;;;;;;2085309;28;20078;-72
2022/07/11 04:26:59;;;;;;;4.47;2.30;;;18.70;99.90;;;;;;2084581;28;20032;-72
2022/07/11 04:28:00;;;;;;;7.57;3.10;;;18.70;99.90;;;;;;2086373;28;20079;-72
2022/07/11 04:29:01;;;;;;;5.10;2.80;;;18.70;99.90;;;;;;2086804;28;20021;-73
2022/07/11 04:30:01;;;;;;;5.03;2.88;;;18.70;99.90;;;;;;2085269;28;20146;-72
2022/07/11 04:31:02;;;;;;;6.03;2.75;;;18.70;99.90;;;;;;2082642;28;20013;-72
2022/07/11 04:32:03;;;;;;;5.47;2.90;;;18.80;99.90;;;;;;2085894;28;20025;-72
2022/07/11 04:33:04;;;;;;;5.72;2.72;;;18.80;99.90;;;;;;2084970;28;20396;-72
2022/07/11 04:34:04;;;;;;;7.55;2.67;;;18.80;99.90;;;;;;2086783;28;20027;-72
2022/07/11 04:35:08;;;;;;;4.30;3.00;;;18.80;99.90;;;;;;2084472;28;20021;-72
2022/07/11 04:36:08;;;;;;;4.63;2.50;;;18.80;99.90;;;;;;2083388;28;20029;-72
2022/07/11 04:37:09;;;;;;;7.57;2.78;;;18.80;99.90;;;;;;2086546;28;20040;-72
2022/07/11 04:38:10;;;;;;;6.70;3.08;;;18.80;99.90;;;;;;2082762;28;20025;-72
2022/07/11 04:39:10;;;;;;;6.95;2.85;;;18.80;99.90;;;;;;2083606;28;20051;-72
2022/07/11 04:40:12;;;;;;;4.63;2.80;;;18.80;99.90;;;;;;2082033;28;20068;-72
2022/07/11 04:41:13;;;;;;;6.00;3.00;;;18.80;99.90;;;;;;2083717;28;20048;-72
2022/07/11 04:42:14;;;;;;;7.15;3.20;;;18.80;99.90;;;;;;2084934;28;20567;-72
2022/07/11 04:43:14;;;;;;;4.03;2.42;;;18.90;99.90;;;;;;2081788;28;20037;-72
2022/07/11 04:44:15;;;;;;;5.63;2.50;;;18.90;99.90;;;;;;2083377;28;20389;-72
2022/07/11 04:45:16;;;;;;;4.22;2.53;;;18.80;99.90;;;;;;2084605;28;20025;-72
2022/07/11 04:46:16;;;;;;;4.63;2.45;;;18.80;99.90;;;;;;2082873;28;20021;-72
2022/07/11 04:47:17;;;;;;;4.68;2.50;;;18.80;99.90;;;;;;2085937;28;20028;-72
2022/07/11 04:48:17;;;;;;;5.63;2.60;;;18.80;99.90;;;;;;2084864;28;20025;-72
2022/07/11 04:49:18;;;;;;;5.95;2.60;;;18.80;99.90;;;;;;2084885;28;20029;-72
2022/07/11 04:50:19;;;;;;;4.05;2.17;;;18.80;99.90;;;;;;2083574;28;20037;-72
2022/07/11 04:51:19;;;;;;;3.90;2.58;;;18.90;99.90;;;;;;2084801;28;20429;-72
2022/07/11 04:52:20;;;;;;;4.75;2.08;;;18.80;99.90;;;;;;2081949;28;20021;-72
2022/07/11 04:53:20;;;;;;;3.85;2.17;;;18.90;99.90;;;;;;2084976;28;20531;-73
2022/07/11 04:54:22;;;;;;;4.97;2.15;;;18.90;99.90;;;;;;2083897;28;20040;-72
2022/07/11 04:55:23;;;;;;;6.15;2.67;;;18.90;99.90;;;;;;2084197;28;20032;-73
2022/07/11 04:56:24;;;;;;;3.97;1.90;;;18.90;99.90;;;;;;2081196;28;20149;-72
2022/07/11 04:57:26;;;;;;;5.45;2.03;;;18.90;99.90;;;;;;2085070;28;20037;-72
2022/07/11 04:58:26;;;;;;;4.85;1.77;;;18.90;99.90;;;;;;2084734;28;20025;-72
2022/07/11 04:59:27;;;;;;;5.68;1.90;;;18.90;99.90;;;;;;2084519;28;20511;-72
2022/07/11 05:00:28;;;;;;;4.50;1.70;;;18.90;99.90;;;;;;2081631;28;20405;-72
2022/07/11 05:01:29;;;;;;;4.22;1.80;;;18.90;99.90;;;;;;2082453;28;20409;-72
2022/07/11 05:02:30;;;;;;;3.45;1.50;;;18.90;99.90;;;;;;2081284;28;20021;-72
2022/07/11 05:03:32;;;;;;;2.90;1.60;;;18.90;99.90;;;;;;2084495;28;20419;-72
2022/07/11 05:04:32;;;;;;;5.22;2.05;;;18.90;99.90;;;;;;2084297;28;20025;-72
2022/07/11 05:05:33;;;;;;;2.83;1.80;;;18.80;99.90;;;;;;2085235;28;20028;-72
2022/07/11 05:06:34;;;;;;;2.70;1.58;;;18.80;99.90;;;;;;2082238;28;20045;-72
2022/07/11 05:07:35;;;;;;;3.47;1.20;;;18.80;99.90;;;;;;2081349;28;20424;-71
2022/07/11 05:08:36;;;;;;;4.85;1.60;;;18.80;99.90;;;;;;2080494;28;20045;-73
2022/07/11 05:09:36;;;;;;;3.65;1.48;;;18.80;99.90;;;;;;2082160;28;20080;-71
2022/07/11 05:10:37;;;;;;;1.98;1.27;;;18.80;99.90;;;;;;2079867;28;20026;-71
2022/07/11 05:11:38;;;;;;;3.45;1.20;;;18.80;99.90;;;;;;2084139;28;20485;-71
2022/07/11 05:12:38;;;;;;;3.03;1.17;;;18.80;99.90;;;;;;2084101;28;20025;-71
2022/07/11 05:13:39;;;;;;;2.22;1.52;;;18.80;99.90;;;;;;2077555;28;20036;-71
2022/07/11 05:14:40;;;;;;;4.68;1.63;;;18.80;99.90;;;;;;2085521;28;20102;-71
2022/07/11 05:15:42;;;;;;;1.30;1.05;;;18.80;99.90;;;;;;2081396;28;20025;-71
2022/07/11 05:16:42;;;;;;;3.88;1.55;;;18.80;99.90;;;;;;2081411;28;20423;-71
2022/07/11 05:17:43;;;;;;;3.22;1.35;;;18.80;99.90;;;;;;2082666;28;20049;-71
2022/07/11 05:18:44;;;;;;;2.53;1.30;;;18.90;99.90;;;;;;2080028;28;20554;-71